Time;durP1;ratioP1;P1;durP2;ratioP2;P2;SDS_P1;SDS_P2;PMS_P1;PMS_P2;Temp;Humidity;BMP_temperature;BMP_pressure;BME280_temperature;BME280_humidity;BME280_pressure;Samples;Min_cycle;Max_cycle;Signal;HPM_P1;HPM_P2
2022/09/05 00:00:11;;;;;;;1.58;1.00;;;16.10;51.20;;;;;;4897231;29;20207;-34
2022/09/05 00:03:04;;;;;;;1.50;1.05;;;16.10;51.30;;;;;;4897094;29;20305;-37
2022/09/05 00:05:49;;;;;;;1.98;1.10;;;16.10;51.20;;;;;;4896435;29;20224;-34
2022/09/05 00:08:26;;;;;;;1.98;1.17;;;16.10;51.20;;;;;;4897621;29;20204;-39
2022/09/05 00:11:07;;;;;;;1.73;1.10;;;16.10;51.20;;;;;;4896807;29;20208;-35
2022/09/05 00:13:43;;;;;;;1.67;1.23;;;16.10;51.20;;;;;;4895541;29;20197;-34
2022/09/05 00:16:38;;;;;;;1.90;1.10;;;16.20;51.20;;;;;;4894892;29;20228;-39
2022/09/05 00:19:19;;;;;;;1.90;0.95;;;16.20;51.20;;;;;;4921533;23;20228;-35
2022/09/05 00:22:04;;;;;;;1.75;1.08;;;16.10;51.10;;;;;;4905914;29;20314;-36
2022/09/05 00:24:50;;;;;;;1.77;1.27;;;16.20;51.10;;;;;;4896914;29;20285;-34
2022/09/05 00:27:27;;;;;;;2.53;1.50;;;16.20;51.20;;;;;;4889145;29;20197;-33
2022/09/05 00:30:10;;;;;;;2.17;1.13;;;16.20;51.10;;;;;;4880671;29;20272;-42
2022/09/05 00:33:07;;;;;;;1.65;1.10;;;16.20;51.30;;;;;;4883386;29;20197;-38
2022/09/05 00:36:02;;;;;;;1.20;1.00;;;16.10;51.40;;;;;;4896390;29;20248;-39
2022/09/05 00:38:33;;;;;;;2.80;1.67;;;16.20;51.40;;;;;;4888277;29;20210;-35
2022/09/05 00:41:07;;;;;;;2.40;1.38;;;16.20;51.40;;;;;;4877284;29;20221;-34
2022/09/05 00:43:41;;;;;;;1.63;1.15;;;16.20;51.30;;;;;;4885658;29;20208;-34
2022/09/05 00:46:17;;;;;;;2.83;1.65;;;16.20;51.40;;;;;;4877361;29;20225;-34
2022/09/05 00:48:54;;;;;;;2.22;1.55;;;16.20;51.40;;;;;;4894225;29;20196;-34
2022/09/05 00:51:34;;;;;;;2.55;1.13;;;16.20;51.30;;;;;;4896761;29;20200;-34
2022/09/05 00:54:31;;;;;;;1.58;1.08;;;16.20;51.40;;;;;;4858629;29;20202;-34
2022/09/05 00:57:15;;;;;;;1.38;1.00;;;16.20;51.30;;;;;;4864863;29;20673;-34
2022/09/05 01:00:08;;;;;;;2.55;1.20;;;16.20;51.30;;;;;;4890626;29;20216;-34
2022/09/05 01:03:09;;;;;;;1.38;1.00;;;16.20;51.30;;;;;;4880550;29;20225;-34
2022/09/05 01:05:57;;;;;;;2.67;1.40;;;16.20;51.30;;;;;;4877490;29;20285;-34
2022/09/05 01:08:53;;;;;;;1.73;1.20;;;16.20;51.20;;;;;;4882430;29;20205;-34
2022/09/05 01:11:39;;;;;;;1.40;0.80;;;16.20;51.20;;;;;;4868547;29;20209;-34
2022/09/05 01:14:25;;;;;;;1.73;1.25;;;16.20;51.20;;;;;;4894927;29;20200;-33
2022/09/05 01:20:30;;;;;;;1.70;1.30;;;16.20;51.90;;;;;;4912935;29;20223;-35
2022/09/05 01:23:22;;;;;;;1.38;1.00;;;16.20;51.40;;;;;;4913317;29;20224;-36
2022/09/05 01:26:15;;;;;;;1.58;1.10;;;16.30;51.40;;;;;;4902984;29;20234;-35
2022/09/05 01:28:52;;;;;;;1.52;1.10;;;16.30;51.30;;;;;;4905845;29;20205;-33
2022/09/05 01:31:37;;;;;;;1.48;1.23;;;16.30;51.30;;;;;;4914582;29;20204;-34
2022/09/05 01:34:16;;;;;;;1.67;1.05;;;16.30;51.40;;;;;;4913959;29;20196;-33
2022/09/05 01:36:59;;;;;;;1.52;1.20;;;16.30;51.30;;;;;;4914180;29;20220;-33
2022/09/05 01:39:43;;;;;;;1.45;1.00;;;16.30;51.40;;;;;;4891390;29;20205;-36
2022/09/05 01:42:28;;;;;;;2.47;1.10;;;16.30;51.30;;;;;;4895754;29;20244;-40
2022/09/05 01:45:05;;;;;;;1.17;0.90;;;16.30;51.50;;;;;;4910421;29;20216;-34
2022/09/05 01:47:50;;;;;;;3.03;1.40;;;16.30;51.50;;;;;;4914277;29;20196;-35
2022/09/05 01:50:36;;;;;;;1.20;1.10;;;16.30;51.50;;;;;;4914078;29;20586;-34
2022/09/05 01:53:25;;;;;;;1.90;1.20;;;16.40;51.50;;;;;;4904351;29;20203;-33
2022/09/05 01:56:26;;;;;;;2.25;1.33;;;16.40;51.50;;;;;;4913302;29;20255;-34
2022/09/05 01:59:15;;;;;;;1.05;0.90;;;16.40;51.50;;;;;;4913940;29;20598;-35
2022/09/05 02:02:06;;;;;;;1.33;1.17;;;16.40;51.50;;;;;;4897928;29;20269;-34
2022/09/05 02:05:07;;;;;;;1.42;1.20;;;16.40;51.50;;;;;;4876871;29;20205;-34
2022/09/05 02:07:56;;;;;;;1.33;1.00;;;16.40;51.40;;;;;;4882024;29;20245;-33
2022/09/05 02:11:01;;;;;;;1.30;1.20;;;16.40;51.40;;;;;;4876895;29;20209;-35
2022/09/05 02:13:50;;;;;;;1.20;1.05;;;16.40;51.50;;;;;;4897527;29;20200;-33
2022/09/05 02:16:27;;;;;;;1.13;1.00;;;16.40;51.40;;;;;;4876906;29;20232;-37
2022/09/05 02:19:08;;;;;;;1.52;1.00;;;16.40;51.40;;;;;;4903743;29;20559;-34
2022/09/05 02:21:46;;;;;;;1.27;0.85;;;16.40;51.40;;;;;;4905847;29;20216;-33
2022/09/05 02:24:23;;;;;;;2.58;1.27;;;16.40;51.40;;;;;;4910825;29;20732;-33
2022/09/05 02:27:18;;;;;;;1.98;1.02;;;16.40;51.40;;;;;;4913519;29;20228;-33
2022/09/05 02:29:57;;;;;;;2.28;1.20;;;16.40;51.40;;;;;;4913297;29;20200;-33
2022/09/05 02:32:33;;;;;;;1.77;1.25;;;16.40;51.60;;;;;;4914178;29;20660;-34
2022/09/05 02:35:16;;;;;;;2.17;1.25;;;16.40;51.70;;;;;;4882018;29;20220;-37
2022/09/05 02:37:50;;;;;;;1.73;1.10;;;16.40;51.70;;;;;;4878844;29;20204;-34
2022/09/05 02:40:27;;;;;;;1.80;1.30;;;16.40;51.60;;;;;;4876097;29;20205;-36
2022/09/05 02:43:03;;;;;;;2.67;1.52;;;16.40;51.60;;;;;;4890885;29;20228;-33
2022/09/05 02:45:44;;;;;;;3.00;2.05;;;16.40;51.60;;;;;;4898810;29;20224;-33
2022/09/05 02:48:24;;;;;;;2.88;2.00;;;16.50;52.30;;;;;;4901318;29;20207;-33
2022/09/05 02:51:06;;;;;;;3.60;2.30;;;16.40;51.60;;;;;;4913726;29;20211;-43
2022/09/05 02:53:40;;;;;;;4.13;2.30;;;16.40;51.50;;;;;;4913140;29;20211;-34
2022/09/05 02:56:33;;;;;;;2.75;1.90;;;16.40;51.50;;;;;;4917611;29;20231;-34
2022/09/05 02:59:12;;;;;;;2.58;2.08;;;16.40;51.50;;;;;;4916782;29;20542;-34
2022/09/05 03:02:00;;;;;;;3.20;2.33;;;16.40;51.50;;;;;;4896455;29;20223;-35
2022/09/05 03:04:37;;;;;;;2.78;1.92;;;16.40;51.60;;;;;;4914215;29;20220;-39
2022/09/05 03:07:24;;;;;;;4.50;2.55;;;16.50;51.60;;;;;;4917571;29;20227;-33
2022/09/05 03:10:17;;;;;;;2.80;1.95;;;16.40;51.50;;;;;;4914654;29;20208;-34
2022/09/05 03:13:41;;;;;;;3.75;2.10;;;16.40;51.50;;;;;;4883116;29;20206;-33
2022/09/05 03:16:48;;;;;;;3.20;1.60;;;16.40;51.50;;;;;;4879100;29;20221;-33
2022/09/05 03:19:46;;;;;;;1.73;1.50;;;16.40;51.50;;;;;;4898158;23;20232;-34
2022/09/05 03:22:56;;;;;;;3.13;2.22;;;16.40;51.50;;;;;;4898010;29;20231;-34
2022/09/05 03:25:57;;;;;;;2.05;1.70;;;16.40;51.50;;;;;;4889610;29;20252;-34
2022/09/05 03:29:05;;;;;;;4.15;2.20;;;16.40;51.50;;;;;;4878918;29;20201;-34
2022/09/05 03:32:10;;;;;;;2.53;1.75;;;16.40;51.50;;;;;;4878146;29;20872;-51
2022/09/05 03:35:33;;;;;;;4.18;2.30;;;16.40;51.50;;;;;;4878631;29;20201;-34
2022/09/05 03:38:34;;;;;;;3.78;2.20;;;16.40;51.60;;;;;;4859100;29;20201;-34
2022/09/05 03:41:23;;;;;;;3.03;2.05;;;16.40;51.60;;;;;;4879161;29;20205;-35
2022/09/05 03:44:22;;;;;;;2.97;2.00;;;16.40;51.60;;;;;;4878335;29;20216;-35
2022/09/05 03:47:14;;;;;;;2.95;2.25;;;16.30;51.60;;;;;;4878619;29;20208;-34
2022/09/05 03:50:22;;;;;;;2.55;2.08;;;16.30;51.60;;;;;;4878389;29;20197;-34
2022/09/05 03:53:06;;;;;;;2.65;1.83;;;16.30;51.70;;;;;;4867341;29;20209;-51
2022/09/05 03:56:02;;;;;;;3.28;2.10;;;16.30;51.60;;;;;;4878346;29;20233;-34
2022/09/05 03:58:51;;;;;;;2.15;1.75;;;16.30;51.70;;;;;;4878377;29;20194;-34
2022/09/05 04:01:26;;;;;;;4.07;2.20;;;16.30;51.60;;;;;;4877943;29;20237;-38
2022/09/05 04:04:03;;;;;;;3.85;2.00;;;16.30;51.60;;;;;;4878439;29;20757;-34
2022/09/05 04:06:38;;;;;;;3.60;2.03;;;16.30;51.70;;;;;;4878388;29;20232;-35
2022/09/05 04:09:26;;;;;;;2.70;2.10;;;16.30;51.70;;;;;;4878782;29;20296;-53
2022/09/05 04:12:01;;;;;;;3.97;2.28;;;16.30;51.80;;;;;;4878511;29;20209;-41
2022/09/05 04:14:44;;;;;;;2.75;2.25;;;16.30;51.80;;;;;;4878430;29;20197;-34
2022/09/05 05:19:58;;;;;;;2.60;1.90;;;16.10;51.90;;;;;;5042381;23;20651;-34
2022/09/05 05:22:29;;;;;;;2.85;1.77;;;16.00;51.90;;;;;;4896212;29;20244;-34
2022/09/05 05:25:01;;;;;;;3.28;1.60;;;16.00;51.90;;;;;;4900741;29;20244;-34
2022/09/05 05:27:40;;;;;;;2.75;2.10;;;16.00;51.90;;;;;;4896250;29;20217;-37
2022/09/05 05:30:13;;;;;;;2.38;1.85;;;16.00;51.90;;;;;;4895526;29;20193;-34
2022/09/05 05:32:47;;;;;;;2.97;2.30;;;16.00;51.90;;;;;;4894591;29;20658;-35
2022/09/05 05:35:26;;;;;;;2.28;1.65;;;16.00;51.90;;;;;;4895959;29;20240;-34
2022/09/05 05:38:09;;;;;;;3.50;2.00;;;16.00;51.90;;;;;;4894714;29;20253;-34
2022/09/05 05:40:47;;;;;;;3.50;2.08;;;16.00;51.90;;;;;;4895512;29;20658;-35
2022/09/05 05:43:18;;;;;;;2.30;1.85;;;16.00;51.90;;;;;;4895351;29;20239;-38
2022/09/05 05:45:56;;;;;;;3.00;2.00;;;15.90;51.80;;;;;;4895530;29;20213;-34
2022/09/05 05:48:34;;;;;;;3.75;1.90;;;15.90;51.80;;;;;;4895357;29;20219;-40
2022/09/05 05:51:29;;;;;;;2.00;1.67;;;15.90;51.80;;;;;;4896239;29;20196;-38
2022/09/05 05:54:04;;;;;;;2.60;2.10;;;15.90;51.90;;;;;;4895544;29;20213;-34
2022/09/05 05:56:58;;;;;;;2.58;1.95;;;15.90;51.80;;;;;;4895477;29;20704;-36
2022/09/05 05:59:46;;;;;;;2.05;1.80;;;15.80;51.80;;;;;;4895064;29;20201;-34
2022/09/05 06:03:03;;;;;;;2.85;2.20;;;15.80;51.80;;;;;;4895619;29;20224;-35
2022/09/05 06:06:05;;;;;;;2.00;1.73;;;15.80;51.90;;;;;;4886045;29;20225;-34
2022/09/05 06:08:59;;;;;;;3.78;2.10;;;15.80;51.80;;;;;;4895181;29;20212;-34
2022/09/05 06:12:08;;;;;;;3.05;2.10;;;15.80;51.80;;;;;;4895048;29;20193;-36
2022/09/05 06:15:14;;;;;;;2.17;1.65;;;15.80;51.80;;;;;;4895003;29;20205;-34
2022/09/05 06:20:59;;;;;;;2.92;1.80;;;15.70;51.70;;;;;;4892979;29;20257;-49
2022/09/05 06:23:59;;;;;;;2.78;1.70;;;15.70;51.80;;;;;;4895389;29;20237;-35
2022/09/05 06:26:58;;;;;;;2.90;1.95;;;15.70;51.80;;;;;;4894525;29;20225;-35
2022/09/05 06:29:43;;;;;;;2.90;1.90;;;15.60;51.80;;;;;;4895136;29;20212;-35
2022/09/05 06:32:31;;;;;;;4.07;1.95;;;15.60;51.90;;;;;;4894797;29;20201;-35
2022/09/05 06:35:26;;;;;;;2.33;1.80;;;15.60;51.80;;;;;;4895061;29;20224;-35
2022/09/05 06:38:12;;;;;;;2.78;2.03;;;15.60;51.90;;;;;;4894805;29;20580;-34
2022/09/05 06:41:01;;;;;;;3.80;2.20;;;15.60;51.80;;;;;;4894702;29;20224;-34
2022/09/05 06:43:55;;;;;;;3.28;2.00;;;15.60;51.80;;;;;;4894081;29;20255;-34
2022/09/05 06:46:34;;;;;;;2.90;1.98;;;15.60;51.80;;;;;;4894364;29;20567;-34
2022/09/05 06:49:16;;;;;;;3.10;2.03;;;15.60;51.80;;;;;;4893659;29;20201;-35
2022/09/05 06:52:32;;;;;;;2.63;1.95;;;15.60;51.80;;;;;;4895291;29;20254;-35
2022/09/05 06:55:36;;;;;;;1.92;1.60;;;15.50;51.90;;;;;;4839641;29;20223;-35
2022/09/05 06:58:34;;;;;;;3.80;1.73;;;15.50;51.90;;;;;;4894619;29;20204;-35
2022/09/05 07:01:06;;;;;;;2.85;1.80;;;15.50;51.90;;;;;;4890376;29;20653;-37
2022/09/05 07:03:58;;;;;;;1.95;1.65;;;15.50;51.80;;;;;;4895242;29;20228;-41
2022/09/05 07:06:36;;;;;;;3.08;1.60;;;15.40;51.80;;;;;;4894041;29;20221;-35
2022/09/05 07:09:17;;;;;;;1.92;1.58;;;15.40;51.80;;;;;;4894949;29;20375;-35
2022/09/05 07:11:56;;;;;;;3.92;1.77;;;15.40;51.80;;;;;;4894873;29;20192;-34
2022/09/05 07:14:33;;;;;;;3.03;1.80;;;15.40;51.70;;;;;;4894406;29;20200;-35
2022/09/05 07:17:11;;;;;;;1.98;1.63;;;15.40;51.70;;;;;;4894388;29;20196;-36
2022/09/05 07:56:01;;;;;;;2.33;1.67;;;15.20;51.70;;;;;;5690841;23;20284;-33
2022/09/05 07:58:40;;;;;;;2.70;1.88;;;15.20;51.70;;;;;;4935878;29;20199;-34
2022/09/05 08:01:14;;;;;;;2.58;1.50;;;15.20;51.80;;;;;;4935044;29;20223;-34
2022/09/05 08:03:46;;;;;;;2.97;2.08;;;15.20;51.70;;;;;;4933824;29;20618;-34
2022/09/05 08:06:22;;;;;;;2.45;1.50;;;15.20;51.80;;;;;;4919817;29;20227;-34
2022/09/05 08:08:58;;;;;;;2.13;1.67;;;15.20;51.80;;;;;;4904429;29;20207;-33
2022/09/05 08:11:35;;;;;;;2.70;1.65;;;15.20;51.80;;;;;;4901723;29;20200;-33
2022/09/05 08:14:08;;;;;;;2.80;1.70;;;15.20;51.70;;;;;;4915298;29;20200;-35
2022/09/05 08:16:41;;;;;;;2.83;1.90;;;15.10;51.80;;;;;;4915127;29;20224;-33
2022/09/05 08:19:53;;;;;;;2.53;1.73;;;15.20;51.80;;;;;;4917948;23;20502;-39
2022/09/05 08:22:26;;;;;;;2.50;1.63;;;15.10;51.70;;;;;;4893635;29;20718;-35
2022/09/05 08:25:04;;;;;;;2.33;1.58;;;15.20;51.70;;;;;;4895680;29;20228;-35
2022/09/05 08:27:49;;;;;;;2.67;2.10;;;15.10;51.70;;;;;;4889321;29;20209;-34
2022/09/05 08:30:20;;;;;;;2.30;1.85;;;15.10;51.80;;;;;;4893074;29;20213;-34
2022/09/05 08:32:57;;;;;;;1.95;1.70;;;15.10;52.50;;;;;;4895909;29;20216;-35
2022/09/05 08:35:34;;;;;;;2.70;1.98;;;15.10;51.90;;;;;;4896111;29;20247;-36
2022/09/05 08:38:05;;;;;;;8.48;6.32;;;15.10;52.40;;;;;;4896084;29;20200;-52
2022/09/05 08:40:39;;;;;;;7.72;4.32;;;15.10;51.10;;;;;;4895811;29;20205;-52
2022/09/05 08:43:24;;;;;;;7.90;4.07;;;15.00;48.90;;;;;;4895265;29;20224;-63
2022/09/05 08:46:01;;;;;;;5.85;3.22;;;14.70;48.20;;;;;;4895959;29;20716;-35
2022/09/05 08:48:53;;;;;;;8.32;3.58;;;14.50;48.50;;;;;;4896011;29;20200;-35
2022/09/05 08:51:40;;;;;;;7.88;3.22;;;14.40;49.00;;;;;;4894879;29;20704;-35
2022/09/05 08:54:31;;;;;;;7.18;2.85;;;14.30;49.30;;;;;;4883351;29;20198;-34
2022/09/05 08:57:10;;;;;;;7.03;2.80;;;14.30;49.40;;;;;;4884692;29;20216;-34
2022/09/05 08:59:51;;;;;;;6.07;3.05;;;14.20;49.50;;;;;;4895643;29;20216;-35
2022/09/05 09:02:55;;;;;;;6.50;3.33;;;14.20;49.80;;;;;;4895564;29;20201;-36
2022/09/05 09:05:58;;;;;;;5.72;2.65;;;14.20;50.00;;;;;;4895511;29;20224;-34
2022/09/05 09:08:40;;;;;;;4.68;2.67;;;14.10;50.00;;;;;;4884044;29;20208;-35
2022/09/05 09:11:23;;;;;;;6.93;2.65;;;14.20;50.50;;;;;;4895063;29;20200;-35
2022/09/05 09:13:57;;;;;;;3.63;2.38;;;14.20;50.70;;;;;;4895400;29;20212;-43
2022/09/05 09:16:39;;;;;;;4.00;2.50;;;14.20;50.80;;;;;;4890452;29;20218;-49
2022/09/05 10:19:03;;;;;;;3.20;2.08;;;14.20;51.00;;;;;;5660068;23;20367;-48
2022/09/05 10:21:56;;;;;;;4.30;1.92;;;14.20;51.10;;;;;;4915629;29;20200;-47
2022/09/05 10:24:50;;;;;;;3.88;2.40;;;14.20;51.10;;;;;;4912845;29;20244;-39
2022/09/05 10:27:40;;;;;;;3.38;1.80;;;14.10;51.10;;;;;;4913847;29;20199;-51
2022/09/05 10:30:21;;;;;;;3.58;2.00;;;14.20;51.10;;;;;;4913658;29;20566;-39
2022/09/05 10:33:21;;;;;;;4.13;1.90;;;14.20;51.10;;;;;;4914289;29;20203;-37
2022/09/05 10:36:01;;;;;;;4.03;1.80;;;14.20;51.10;;;;;;4913425;29;20220;-41
2022/09/05 10:38:40;;;;;;;2.40;1.60;;;14.20;51.60;;;;;;4906295;29;20204;-50
2022/09/05 10:41:15;;;;;;;3.15;1.80;;;14.20;51.10;;;;;;4908285;29;20758;-39
2022/09/05 10:43:51;;;;;;;2.70;1.70;;;14.10;51.00;;;;;;4900602;29;20240;-50
2022/09/05 10:46:32;;;;;;;3.00;1.73;;;14.10;51.00;;;;;;4904314;29;20219;-35
2022/09/05 10:49:09;;;;;;;3.03;1.67;;;14.10;51.10;;;;;;4913390;29;20716;-51
2022/09/05 10:51:50;;;;;;;3.15;1.85;;;14.20;51.70;;;;;;4894800;29;20888;-52
2022/09/05 10:54:36;;;;;;;2.60;1.60;;;14.10;51.10;;;;;;4893885;29;20257;-47
2022/09/05 10:57:21;;;;;;;2.50;1.60;;;14.10;51.10;;;;;;4894602;29;20307;-49
2022/09/05 11:00:08;;;;;;;2.65;1.80;;;14.10;51.10;;;;;;4896226;29;20196;-44
2022/09/05 11:02:43;;;;;;;3.28;1.88;;;14.10;51.10;;;;;;4913453;29;20204;-41
2022/09/05 11:05:24;;;;;;;3.45;1.60;;;14.10;51.10;;;;;;4912994;29;20215;-47
2022/09/05 11:08:06;;;;;;;3.50;1.88;;;14.10;51.10;;;;;;4910135;29;20213;-45
2022/09/05 11:10:47;;;;;;;2.92;1.55;;;14.10;51.10;;;;;;4894494;29;20199;-35
2022/09/05 11:13:24;;;;;;;2.30;1.30;;;14.10;51.10;;;;;;4913940;29;20211;-34
2022/09/05 11:16:08;;;;;;;3.20;1.60;;;14.10;51.10;;;;;;4915039;29;20215;-49
2022/09/05 11:19:03;;;;;;;2.45;1.55;;;14.10;51.10;;;;;;4928905;23;20227;-35
2022/09/05 11:21:42;;;;;;;2.15;1.50;;;14.10;51.10;;;;;;4903018;29;20201;-35
2022/09/05 11:24:25;;;;;;;2.72;1.58;;;14.10;51.20;;;;;;4898588;29;20228;-36
2022/09/05 11:27:01;;;;;;;3.60;1.50;;;14.00;51.10;;;;;;4881539;29;20271;-35
2022/09/05 11:29:39;;;;;;;2.97;1.80;;;14.00;51.10;;;;;;4879470;29;20283;-35
2022/09/05 11:32:34;;;;;;;2.40;1.40;;;14.00;51.20;;;;;;4879021;29;20373;-36
2022/09/05 11:35:19;;;;;;;3.30;1.50;;;14.00;51.20;;;;;;4878241;29;20244;-35
2022/09/05 11:38:25;;;;;;;2.42;1.50;;;14.00;51.10;;;;;;4878266;29;20270;-40
2022/09/05 11:41:25;;;;;;;2.65;1.60;;;14.00;51.20;;;;;;4871836;29;20197;-34
2022/09/05 11:44:32;;;;;;;2.17;1.52;;;14.00;51.10;;;;;;4877713;29;20221;-36
2022/09/05 11:47:36;;;;;;;3.35;1.75;;;14.00;51.10;;;;;;4878164;29;20201;-35
2022/09/05 11:50:44;;;;;;;2.55;1.77;;;14.00;51.10;;;;;;4877921;29;20738;-35
2022/09/05 11:53:49;;;;;;;1.58;1.17;;;14.00;51.20;;;;;;4867478;29;20650;-35
2022/09/05 11:56:48;;;;;;;2.30;1.45;;;14.00;51.20;;;;;;4877584;29;20220;-35
2022/09/05 12:00:01;;;;;;;2.75;1.80;;;13.90;51.20;;;;;;4877639;29;20212;-35
2022/09/05 12:02:56;;;;;;;2.45;1.48;;;13.90;51.20;;;;;;4877702;29;20564;-35
2022/09/05 12:06:02;;;;;;;2.58;1.55;;;13.90;51.20;;;;;;4877668;29;20249;-35
2022/09/05 12:08:40;;;;;;;3.03;1.30;;;13.80;51.20;;;;;;4865814;29;20217;-35
2022/09/05 12:11:22;;;;;;;2.53;1.48;;;13.90;51.20;;;;;;4877661;29;20201;-34
2022/09/05 12:14:02;;;;;;;1.98;1.52;;;13.90;51.20;;;;;;4877453;29;20216;-36
2022/09/05 12:16:57;;;;;;;3.75;1.40;;;13.90;51.90;;;;;;4877803;29;20228;-35
2022/09/05 12:19:39;;;;;;;2.55;1.50;;;13.90;51.30;;;;;;4908788;23;20232;-34
2022/09/05 12:22:28;;;;;;;3.03;1.55;;;13.90;51.30;;;;;;4915188;29;20216;-33
2022/09/05 12:25:26;;;;;;;2.75;1.30;;;13.80;51.20;;;;;;4914690;29;20263;-33
2022/09/05 12:27:59;;;;;;;2.42;1.40;;;13.80;51.20;;;;;;4910380;29;20204;-34
2022/09/05 12:30:36;;;;;;;2.58;1.40;;;13.80;51.20;;;;;;4914940;29;20204;-34
2022/09/05 12:33:22;;;;;;;2.55;1.40;;;13.80;51.20;;;;;;4914606;29;20211;-34
2022/09/05 12:36:01;;;;;;;2.05;1.27;;;13.80;51.20;;;;;;4914925;29;20223;-33
2022/09/05 12:38:38;;;;;;;2.00;1.30;;;13.80;51.20;;;;;;4914757;29;20212;-33
2022/09/05 12:41:12;;;;;;;2.55;1.45;;;13.70;51.20;;;;;;4914571;29;20195;-33
2022/09/05 12:43:46;;;;;;;2.47;1.30;;;13.80;51.30;;;;;;4895763;29;20201;-34
2022/09/05 12:46:26;;;;;;;1.92;1.25;;;13.80;51.20;;;;;;4895660;29;20224;-33
2022/09/05 12:49:03;;;;;;;2.15;1.25;;;13.70;51.20;;;;;;4910232;29;20212;-33
2022/09/05 12:51:37;;;;;;;2.08;1.23;;;13.70;51.20;;;;;;4914228;29;20215;-34
2022/09/05 12:54:16;;;;;;;2.50;1.30;;;13.70;51.20;;;;;;4913799;29;20199;-34
2022/09/05 12:56:55;;;;;;;2.25;1.40;;;13.70;51.20;;;;;;4914099;29;20688;-34
2022/09/05 12:59:28;;;;;;;1.85;1.10;;;13.70;51.20;;;;;;4914451;29;20200;-34
2022/09/05 13:02:05;;;;;;;1.92;1.30;;;13.70;51.20;;;;;;4914315;29;20437;-34
2022/09/05 13:04:39;;;;;;;3.97;1.45;;;13.70;51.20;;;;;;4913907;29;20244;-33
2022/09/05 13:07:13;;;;;;;3.75;1.40;;;13.70;51.20;;;;;;4914335;29;20564;-34
2022/09/05 13:09:47;;;;;;;1.83;1.50;;;13.70;51.20;;;;;;4914352;29;20208;-34
2022/09/05 13:12:23;;;;;;;2.67;1.20;;;13.70;51.20;;;;;;4913942;29;20200;-35
2022/09/05 13:15:04;;;;;;;2.58;1.40;;;13.70;51.20;;;;;;4914127;29;20782;-33
2022/09/05 13:17:40;;;;;;;2.40;1.38;;;13.70;51.10;;;;;;4914069;29;20239;-33
2022/09/05 14:22:40;;;;;;;1.63;1.17;;;13.50;51.10;;;;;;4893849;29;20672;-33
2022/09/05 14:25:18;;;;;;;1.90;1.30;;;13.40;51.00;;;;;;4893615;29;20266;-34
2022/09/05 14:27:51;;;;;;;1.60;1.02;;;13.40;51.00;;;;;;4894138;29;20227;-33
2022/09/05 14:30:39;;;;;;;1.52;1.10;;;13.40;51.00;;;;;;4893989;29;20223;-33
2022/09/05 14:33:35;;;;;;;1.08;0.90;;;13.40;51.10;;;;;;4893533;29;20204;-33
2022/09/05 14:36:17;;;;;;;1.80;1.05;;;13.40;51.10;;;;;;4893102;29;20479;-33
2022/09/05 14:39:16;;;;;;;1.73;1.05;;;13.40;51.10;;;;;;4893955;29;20215;-34
2022/09/05 14:42:10;;;;;;;1.92;1.10;;;13.40;51.10;;;;;;4894418;29;20207;-34
2022/09/05 14:45:06;;;;;;;1.17;0.90;;;13.40;51.00;;;;;;4892863;29;20626;-34
2022/09/05 14:47:58;;;;;;;1.60;0.90;;;13.40;51.10;;;;;;4893736;29;20839;-34
2022/09/05 14:50:52;;;;;;;1.70;1.15;;;13.30;51.00;;;;;;4896347;29;20216;-34
2022/09/05 14:53:27;;;;;;;1.25;1.10;;;13.30;51.00;;;;;;4896679;29;20557;-34
2022/09/05 14:56:00;;;;;;;1.77;1.10;;;13.30;51.00;;;;;;4897495;29;20243;-34
2022/09/05 14:58:32;;;;;;;1.23;0.80;;;13.30;51.00;;;;;;4897254;29;20189;-34
2022/09/05 15:01:04;;;;;;;1.50;0.93;;;13.30;51.00;;;;;;4897698;29;20197;-34
2022/09/05 15:03:40;;;;;;;1.85;1.00;;;13.30;51.00;;;;;;4897439;29;20751;-34
2022/09/05 15:06:20;;;;;;;1.40;1.13;;;13.30;51.00;;;;;;4897013;29;20457;-34
2022/09/05 15:09:01;;;;;;;1.73;1.08;;;13.20;51.00;;;;;;4897853;29;20252;-34
2022/09/05 15:11:33;;;;;;;1.40;1.00;;;13.30;51.00;;;;;;4897886;29;20204;-42
2022/09/05 15:14:07;;;;;;;2.55;1.00;;;13.20;51.00;;;;;;4897763;29;20265;-43
2022/09/05 15:16:44;;;;;;;1.20;0.90;;;13.20;51.00;;;;;;4897333;29;20748;-42
2022/09/05 15:19:37;;;;;;;1.38;0.90;;;13.20;51.00;;;;;;4908629;23;20276;-35
2022/09/05 15:22:24;;;;;;;1.27;0.88;;;13.20;51.00;;;;;;4896819;29;20205;-35
2022/09/05 15:25:21;;;;;;;1.50;0.90;;;13.20;51.00;;;;;;4893209;29;20233;-35
2022/09/05 15:27:53;;;;;;;1.52;0.90;;;13.20;51.00;;;;;;4878558;29;20236;-34
2022/09/05 15:30:26;;;;;;;1.63;1.00;;;13.20;51.00;;;;;;4866572;29;20285;-34
2022/09/05 15:33:16;;;;;;;1.88;1.08;;;13.20;51.00;;;;;;4859367;29;20206;-35
2022/09/05 15:35:47;;;;;;;1.35;1.00;;;13.20;51.00;;;;;;4872293;29;20646;-34
2022/09/05 15:38:26;;;;;;;1.90;1.20;;;13.20;50.90;;;;;;4878353;29;20209;-42
2022/09/05 15:41:20;;;;;;;1.88;1.00;;;13.20;51.00;;;;;;4878375;29;20202;-43
2022/09/05 15:44:01;;;;;;;1.10;0.80;;;13.20;51.00;;;;;;4878401;29;20201;-46
2022/09/05 15:46:50;;;;;;;1.08;0.90;;;13.20;51.00;;;;;;4878074;29;20598;-43
2022/09/05 15:49:29;;;;;;;1.73;0.93;;;13.10;50.90;;;;;;4877672;29;20203;-43
2022/09/05 15:52:03;;;;;;;1.27;0.73;;;13.10;50.90;;;;;;4878121;29;20205;-35
2022/09/05 15:54:36;;;;;;;0.70;0.70;;;13.10;50.90;;;;;;4877976;29;20217;-36
2022/09/05 15:57:12;;;;;;;2.28;1.20;;;13.10;51.00;;;;;;4878011;29;20672;-35
2022/09/05 15:59:48;;;;;;;1.40;0.88;;;13.10;51.00;;;;;;4877382;29;20224;-34
2022/09/05 16:02:22;;;;;;;1.27;0.80;;;13.10;50.90;;;;;;4877098;29;20265;-34
2022/09/05 16:05:07;;;;;;;1.67;1.00;;;13.10;51.00;;;;;;4877583;29;20686;-35
2022/09/05 16:07:43;;;;;;;1.38;0.80;;;13.10;51.00;;;;;;4878095;29;20201;-34
2022/09/05 16:10:21;;;;;;;1.05;0.82;;;13.10;50.90;;;;;;4877997;29;20205;-34
2022/09/05 16:12:56;;;;;;;2.05;1.17;;;13.10;50.90;;;;;;4877632;29;20698;-36
2022/09/05 16:15:32;;;;;;;1.50;0.70;;;13.10;50.90;;;;;;4877715;29;20232;-34
2022/09/05 16:18:06;;;;;;;1.50;1.00;;;13.10;50.90;;;;;;4877755;29;20212;-35
2022/09/05 16:20:42;;;;;;;2.13;1.00;;;13.00;50.90;;;;;;4905158;23;20225;-33
2022/09/05 16:23:19;;;;;;;1.20;0.90;;;13.00;50.90;;;;;;4895756;29;20200;-32
2022/09/05 16:25:52;;;;;;;1.70;0.93;;;13.00;50.90;;;;;;4884926;29;20728;-34
2022/09/05 16:28:27;;;;;;;1.63;1.10;;;13.00;50.90;;;;;;4876536;29;20650;-33
2022/09/05 16:31:05;;;;;;;1.88;1.15;;;13.00;50.90;;;;;;4876582;29;20197;-34
2022/09/05 16:33:36;;;;;;;1.55;0.98;;;13.00;50.90;;;;;;4876761;29;20561;-33
2022/09/05 16:36:12;;;;;;;1.48;0.90;;;13.00;50.90;;;;;;4876843;29;20426;-34
2022/09/05 16:38:49;;;;;;;1.70;0.95;;;12.90;50.80;;;;;;4877357;29;20201;-34
2022/09/05 16:41:23;;;;;;;1.08;0.90;;;12.90;51.40;;;;;;4877362;29;20657;-33
2022/09/05 16:43:58;;;;;;;1.30;0.90;;;12.90;50.80;;;;;;4877283;29;20206;-34
2022/09/05 16:46:37;;;;;;;0.82;0.82;;;12.90;50.80;;;;;;4877388;29;20237;-34
2022/09/05 16:49:15;;;;;;;1.15;0.80;;;12.90;50.80;;;;;;4877405;29;20205;-34
2022/09/05 16:51:47;;;;;;;2.10;0.80;;;12.90;50.80;;;;;;4876502;29;20205;-33
2022/09/05 16:54:24;;;;;;;1.23;0.80;;;12.90;50.80;;;;;;4876875;29;20205;-33
2022/09/05 16:56:57;;;;;;;2.15;0.93;;;12.90;50.80;;;;;;4875147;29;20201;-34
2022/09/05 16:59:33;;;;;;;1.67;0.80;;;12.90;50.80;;;;;;4856961;29;20206;-33
2022/09/05 17:02:09;;;;;;;1.20;0.95;;;12.90;50.80;;;;;;4858353;29;20214;-33
2022/09/05 17:04:58;;;;;;;1.92;1.10;;;12.80;50.80;;;;;;4857529;29;20197;-33
2022/09/05 17:07:34;;;;;;;1.23;0.95;;;12.80;50.70;;;;;;4840161;29;20207;-33
2022/09/05 17:10:10;;;;;;;2.22;0.90;;;12.80;50.80;;;;;;4840019;29;20573;-33
2022/09/05 17:12:42;;;;;;;0.70;0.68;;;12.80;50.80;;;;;;4838982;29;20444;-34
2022/09/05 17:15:20;;;;;;;0.90;0.82;;;12.80;50.80;;;;;;4839537;29;20237;-33
2022/09/05 17:18:01;;;;;;;0.93;0.77;;;12.80;50.80;;;;;;4839355;29;20202;-33
2022/09/05 17:20:36;;;;;;;1.02;0.90;;;12.80;50.80;;;;;;4912581;23;20243;-38
2022/09/05 17:23:17;;;;;;;1.15;0.90;;;12.80;50.70;;;;;;4913871;29;20286;-34
2022/09/05 17:25:49;;;;;;;1.00;0.70;;;12.80;50.70;;;;;;4903484;29;20225;-35
2022/09/05 17:28:46;;;;;;;1.40;0.80;;;12.70;50.70;;;;;;4895472;29;20204;-35
2022/09/05 17:31:32;;;;;;;1.38;0.82;;;12.70;50.70;;;;;;4872825;29;20201;-35
2022/09/05 17:34:27;;;;;;;0.80;0.80;;;12.70;50.70;;;;;;4876504;29;20257;-35
2022/09/05 17:37:13;;;;;;;0.95;0.77;;;12.70;50.70;;;;;;4892714;29;20209;-36
2022/09/05 17:39:56;;;;;;;1.05;0.77;;;12.70;50.70;;;;;;4877754;29;20213;-35
2022/09/05 17:42:42;;;;;;;1.13;0.80;;;12.70;50.70;;;;;;4876231;29;20209;-35
2022/09/05 17:45:24;;;;;;;0.60;0.60;;;12.70;50.70;;;;;;4876317;29;20893;-35
2022/09/05 17:47:58;;;;;;;2.33;1.00;;;12.70;50.70;;;;;;4876297;29;20851;-35
2022/09/05 17:50:49;;;;;;;1.23;0.93;;;12.60;50.70;;;;;;4880213;29;20197;-35
2022/09/05 17:53:23;;;;;;;1.42;0.88;;;12.60;50.70;;;;;;4894444;29;20232;-35
2022/09/05 17:56:28;;;;;;;1.23;0.85;;;12.60;50.60;;;;;;4894183;29;20283;-35
2022/09/05 17:59:06;;;;;;;1.75;0.90;;;12.60;50.70;;;;;;4894897;29;20577;-34
2022/09/05 18:01:38;;;;;;;1.80;0.95;;;12.60;50.60;;;;;;4894706;29;20547;-35